Time;durP1;ratioP1;P1;durP2;ratioP2;P2;SDS_P1;SDS_P2;PMS_P1;PMS_P2;Temp;Humidity;BMP_temperature;BMP_pressure;BME280_temperature;BME280_humidity;BME280_pressure;Samples;Min_cycle;Max_cycle;Signal;HPM_P1;HPM_P2
2022/07/09 00:02:25;;;;;;;8.25;0.70;;;;;;;17.46;100.00;99537.97;1713842;81;21050;-55
2022/07/09 00:04:51;;;;;;;5.50;0.60;;;;;;;17.47;100.00;99541.08;1700922;81;21045;-55
2022/07/09 00:07:18;;;;;;;2.65;0.50;;;;;;;17.47;100.00;99538.35;1714122;81;21070;-55
2022/07/09 00:09:44;;;;;;;3.45;0.50;;;;;;;17.46;100.00;99537.97;1708464;82;21109;-54
2022/07/09 00:12:11;;;;;;;6.90;0.90;;;;;;;17.44;100.00;99529.09;1674794;84;21259;-55
2022/07/09 00:14:38;;;;;;;2.10;0.50;;;;;;;17.44;100.00;99516.33;1704955;82;21062;-55
2022/07/09 00:17:04;;;;;;;2.67;0.57;;;;;;;17.45;100.00;99524.86;1708127;82;21086;-56
2022/07/09 00:19:32;;;;;;;1.57;0.50;;;;;;;17.49;100.00;99524.14;1699318;82;21097;-54
2022/07/09 00:21:58;;;;;;;0.60;0.40;;;;;;;17.50;100.00;99521.30;1670129;84;21121;-54
2022/07/09 00:24:25;;;;;;;1.37;0.50;;;;;;;17.52;100.00;99525.27;1695131;82;21117;-55
2022/07/09 00:26:51;;;;;;;2.02;0.40;;;;;;;17.55;100.00;99528.59;1664316;84;21478;-55
2022/07/09 00:29:17;;;;;;;0.42;0.40;;;;;;;17.57;100.00;99521.66;1702690;82;21154;-54
2022/07/09 00:31:45;;;;;;;5.30;0.40;;;;;;;17.60;100.00;99528.23;1705686;82;21075;-54
2022/07/09 00:34:12;;;;;;;1.67;0.40;;;;;;;17.60;100.00;99519.58;1669482;84;21450;-54
2022/07/09 00:36:39;;;;;;;0.60;0.40;;;;;;;17.63;100.00;99519.83;1666061;84;21237;-54
2022/07/09 00:39:05;;;;;;;0.50;0.50;;;;;;;17.65;100.00;99518.73;1666383;84;21058;-54
2022/07/09 00:41:32;;;;;;;0.78;0.37;;;;;;;17.67;100.00;99519.48;1671938;84;21124;-54
2022/07/09 00:43:58;;;;;;;0.40;0.40;;;;;;;17.70;100.00;99521.06;1664766;84;21649;-55
2022/07/09 00:46:25;;;;;;;1.07;0.50;;;;;;;17.72;100.00;99522.68;1671132;84;21045;-54
2022/07/09 00:48:51;;;;;;;0.60;0.50;;;;;;;17.72;100.00;99520.45;1653948;85;21265;-54
2022/07/09 00:51:19;;;;;;;1.57;0.50;;;;;;;17.73;100.00;99518.97;1703917;82;21546;-54
2022/07/09 00:53:46;;;;;;;3.65;0.40;;;;;;;17.74;100.00;99516.62;1700129;82;21113;-55
2022/07/09 00:56:13;;;;;;;0.70;0.40;;;;;;;17.75;100.00;99519.72;1703836;82;21124;-54
2022/07/09 00:58:40;;;;;;;2.12;0.40;;;;;;;17.78;100.00;99521.30;1701692;82;21051;-54
2022/07/09 01:01:07;;;;;;;0.45;0.40;;;;;;;17.78;100.00;99516.73;1692048;83;21165;-54
2022/07/09 01:03:33;;;;;;;0.95;0.40;;;;;;;17.81;100.00;99513.39;1701818;82;21058;-55
2022/07/09 01:06:00;;;;;;;0.70;0.50;;;;;;;17.82;100.00;99520.57;1670987;84;21630;-54
2022/07/09 01:08:27;;;;;;;2.83;0.40;;;;;;;17.82;100.00;99517.84;1652666;85;21371;-55
2022/07/09 01:10:54;;;;;;;0.68;0.35;;;;;;;17.78;100.00;99520.81;1652191;85;21112;-54
2022/07/09 01:13:20;;;;;;;3.02;0.40;;;;;;;17.75;100.00;99526.52;1649000;85;21784;-54
2022/07/09 01:15:47;;;;;;;0.57;0.40;;;;;;;17.72;100.00;99521.31;1673470;84;21099;-54
2022/07/09 01:18:13;;;;;;;0.80;0.40;;;;;;;17.70;100.00;99515.13;1664591;84;21082;-54
2022/07/09 01:20:40;;;;;;;0.30;0.30;;;;;;;17.70;100.00;99508.31;1694628;82;21030;-54
2022/07/09 01:23:07;;;;;;;1.90;0.40;;;;;;;17.71;100.00;99508.69;1707122;82;21122;-55
2022/07/09 01:25:41;;;;;;;0.60;0.50;;;;;;;17.72;100.00;99506.34;1666535;84;21149;-55
2022/07/09 01:28:09;;;;;;;0.57;0.50;;;;;;;17.72;100.00;99511.79;1698466;82;20948;-54
2022/07/09 01:30:38;;;;;;;2.70;0.50;;;;;;;17.71;100.00;99510.55;1706894;82;20939;-54
2022/07/09 01:33:05;;;;;;;1.00;0.50;;;;;;;17.68;100.00;99502.66;1676897;82;21030;-53
2022/07/09 01:35:32;;;;;;;0.68;0.40;;;;;;;17.68;100.00;99507.61;1697359;82;20961;-55
2022/07/09 01:37:59;;;;;;;2.22;0.50;;;;;;;17.69;100.00;99505.22;1710883;82;21083;-54
2022/07/09 01:40:25;;;;;;;0.68;0.50;;;;;;;17.68;100.00;99513.54;1692425;82;21042;-54
2022/07/09 01:42:52;;;;;;;1.95;0.50;;;;;;;17.71;100.00;99518.72;1697722;82;21370;-54
2022/07/09 01:45:19;;;;;;;0.60;0.50;;;;;;;17.71;100.00;99514.63;1690333;82;21089;-53
2022/07/09 01:47:45;;;;;;;1.20;0.50;;;;;;;17.71;100.00;99517.35;1674288;84;21007;-54
2022/07/09 01:50:12;;;;;;;1.47;0.60;;;;;;;17.70;100.00;99523.78;1698959;82;21601;-54
2022/07/09 01:52:38;;;;;;;1.17;0.57;;;;;;;17.69;100.00;99524.28;1697272;82;20907;-53
2022/07/09 01:55:05;;;;;;;0.33;0.33;;;;;;;17.68;100.00;99523.06;1707303;82;21306;-53
2022/07/09 01:57:32;;;;;;;0.42;0.40;;;;;;;17.68;100.00;99524.43;1699792;82;21034;-52
2022/07/09 01:59:58;;;;;;;0.50;0.40;;;;;;;17.67;100.00;99512.67;1707640;82;20965;-53
2022/07/09 02:02:25;;;;;;;0.85;0.35;;;;;;;17.69;100.00;99511.19;1700525;82;21499;-53
2022/07/09 02:04:52;;;;;;;0.85;0.42;;;;;;;17.70;100.00;99506.96;1698428;82;21669;-54
2022/07/09 02:07:20;;;;;;;0.47;0.40;;;;;;;17.72;100.00;99500.91;1695085;82;21039;-54
2022/07/09 02:09:48;;;;;;;0.50;0.47;;;;;;;17.74;100.00;99503.02;1699902;82;21078;-54
2022/07/09 02:12:17;;;;;;;0.47;0.40;;;;;;;17.74;100.00;99508.45;1698858;82;21073;-53
2022/07/09 02:14:44;;;;;;;3.05;0.50;;;;;;;17.74;100.00;99520.70;1695846;82;21763;-53
2022/07/09 02:17:11;;;;;;;0.40;0.37;;;;;;;17.75;100.00;99527.89;1696534;82;21097;-53
2022/07/09 02:19:37;;;;;;;7.05;0.40;;;;;;;17.75;100.00;99540.14;1668406;84;21500;-53
2022/07/09 02:22:04;;;;;;;0.60;0.40;;;;;;;17.76;100.00;99559.56;1667728;84;21101;-53
2022/07/09 02:24:31;;;;;;;0.75;0.40;;;;;;;17.80;100.00;99579.23;1673641;84;21105;-53
2022/07/09 02:26:57;;;;;;;0.55;0.40;;;;;;;17.83;100.00;99596.69;1668718;84;21216;-53
2022/07/09 02:29:23;;;;;;;0.82;0.40;;;;;;;17.85;100.00;99605.61;1662571;84;21681;-52
2022/07/09 02:31:50;;;;;;;2.95;0.50;;;;;;;17.88;100.00;99609.42;1695917;82;21057;-53
2022/07/09 02:34:17;;;;;;;0.75;0.40;;;;;;;17.90;100.00;99602.50;1710775;82;21647;-53
2022/07/09 02:36:43;;;;;;;0.82;0.35;;;;;;;17.90;100.00;99597.92;1699388;82;21099;-53
2022/07/09 02:39:10;;;;;;;2.15;0.50;;;;;;;17.91;100.00;99592.84;1702376;82;21111;-52
2022/07/09 02:41:37;;;;;;;0.50;0.40;;;;;;;17.92;100.00;99601.39;1699844;82;21622;-53
2022/07/09 02:44:04;;;;;;;1.47;0.40;;;;;;;17.92;100.00;99600.03;1706316;82;21083;-53
2022/07/09 02:46:30;;;;;;;0.45;0.40;;;;;;;17.93;100.00;99592.23;1668631;84;21053;-53
2022/07/09 02:48:57;;;;;;;1.05;0.35;;;;;;;17.96;100.00;99591.97;1701490;82;21094;-54
2022/07/09 02:51:23;;;;;;;1.20;0.40;;;;;;;17.98;100.00;99579.59;1666275;84;21520;-53
2022/07/09 02:53:50;;;;;;;0.60;0.60;;;;;;;17.99;100.00;99578.11;1671273;84;21096;-53
2022/07/09 02:56:17;;;;;;;1.00;0.45;;;;;;;18.00;100.00;99579.85;1696731;82;21064;-53
2022/07/09 02:58:43;;;;;;;4.03;1.02;;;;;;;18.00;100.00;99590.74;1698914;82;21035;-53
2022/07/09 03:01:11;;;;;;;0.50;0.47;;;;;;;17.99;100.00;99591.73;1670784;84;21709;-53
2022/07/09 03:03:38;;;;;;;1.70;0.40;;;;;;;18.00;100.00;99592.59;1670862;84;21266;-53
2022/07/09 03:06:08;;;;;;;0.50;0.40;;;;;;;17.99;100.00;99594.45;1659636;84;21109;-53
2022/07/09 03:08:34;;;;;;;4.40;0.42;;;;;;;18.00;100.00;99600.77;1658788;84;21086;-53
2022/07/09 03:11:01;;;;;;;1.62;0.30;;;;;;;18.02;100.00;99606.96;1667889;84;21527;-53
2022/07/09 03:13:28;;;;;;;2.15;0.42;;;;;;;18.03;100.00;99604.09;1674350;84;21250;-53
2022/07/09 03:15:54;;;;;;;0.70;0.50;;;;;;;18.05;100.00;99612.14;1671264;83;21221;-53
2022/07/09 03:18:21;;;;;;;0.55;0.50;;;;;;;18.06;100.00;99614.75;1672617;83;21066;-53
2022/07/09 03:20:48;;;;;;;1.12;0.50;;;;;;;18.08;100.00;99613.27;1669498;83;22146;-53
2022/07/09 03:23:15;;;;;;;0.60;0.50;;;;;;;18.08;100.00;99616.86;1670019;83;21548;-53
2022/07/09 03:25:41;;;;;;;1.98;0.50;;;;;;;18.08;100.00;99620.95;1667521;83;21121;-53
2022/07/09 03:28:08;;;;;;;1.05;0.40;;;;;;;18.10;100.00;99623.05;1671964;83;21204;-54
2022/07/09 03:30:36;;;;;;;0.93;0.42;;;;;;;18.12;100.00;99622.41;1705064;82;20962;-53
2022/07/09 03:33:03;;;;;;;0.72;0.50;;;;;;;18.14;100.00;99629.10;1705282;82;21057;-53
2022/07/09 03:35:30;;;;;;;2.33;0.65;;;;;;;18.18;100.00;99633.81;1704092;82;21671;-53
2022/07/09 03:37:56;;;;;;;1.40;0.40;;;;;;;18.19;100.00;99628.25;1703612;82;21430;-53
2022/07/09 03:40:23;;;;;;;1.32;0.50;;;;;;;18.20;100.00;99636.80;1704015;82;21259;-53
2022/07/09 03:42:50;;;;;;;1.60;0.60;;;;;;;18.21;100.00;99626.24;1706979;82;21059;-53
2022/07/09 03:45:16;;;;;;;0.60;0.42;;;;;;;18.22;100.00;99633.43;1667097;83;21092;-53
2022/07/09 03:47:43;;;;;;;1.30;0.70;;;;;;;18.23;100.00;99637.02;1673821;83;21124;-53
2022/07/09 03:50:11;;;;;;;1.32;0.50;;;;;;;18.23;100.00;99637.89;1709346;82;21034;-53
2022/07/09 03:52:38;;;;;;;0.60;0.50;;;;;;;18.23;100.00;99632.44;1712204;82;22378;-53
2022/07/09 03:55:06;;;;;;;0.75;0.53;;;;;;;18.25;100.00;99631.83;1700993;82;21035;-53
2022/07/09 03:57:33;;;;;;;0.40;0.40;;;;;;;18.28;100.00;99633.45;1703457;82;21058;-53
2022/07/09 04:00:00;;;;;;;0.60;0.50;;;;;;;18.27;100.00;99631.22;1709550;82;21110;-53
2022/07/09 04:02:27;;;;;;;1.22;0.40;;;;;;;18.26;100.00;99634.06;1697212;82;21064;-53
2022/07/09 04:04:56;;;;;;;3.72;0.60;;;;;;;18.24;100.00;99630.09;1701492;82;21751;-53
2022/07/09 04:07:23;;;;;;;0.55;0.40;;;;;;;18.22;100.00;99628.47;1716983;82;21057;-53
2022/07/09 04:09:50;;;;;;;2.65;0.40;;;;;;;18.20;100.00;99627.76;1707791;82;21488;-53
2022/07/09 04:12:17;;;;;;;0.50;0.50;;;;;;;18.17;100.00;99630.22;1712627;81;21097;-53
2022/07/09 04:14:44;;;;;;;1.20;0.50;;;;;;;18.17;100.00;99622.05;1714053;81;20926;-53
2022/07/09 04:17:11;;;;;;;1.07;0.50;;;;;;;18.19;100.00;99626.02;1678646;83;21096;-53
2022/07/09 04:19:37;;;;;;;1.07;0.40;;;;;;;18.18;100.00;99617.47;1683062;83;21409;-54
2022/07/09 04:22:04;;;;;;;5.75;0.60;;;;;;;18.18;100.00;99627.01;1682453;83;21026;-54
2022/07/09 04:26:03;;;;;;;1.35;0.60;;;;;;;18.19;100.00;99622.80;1794018;78;28199;-53
2022/07/09 04:28:30;;;;;;;0.68;0.60;;;;;;;18.13;100.00;99621.42;1773033;79;20946;-53
2022/07/09 04:30:58;;;;;;;0.60;0.57;;;;;;;18.11;100.00;99623.92;1772895;79;21549;-53
2022/07/09 04:33:24;;;;;;;0.53;0.40;;;;;;;18.08;100.00;99618.22;1740286;81;21350;-53
2022/07/09 04:35:50;;;;;;;0.60;0.60;;;;;;;18.07;100.00;99615.61;1713802;82;20883;-53
2022/07/09 04:38:17;;;;;;;2.87;0.50;;;;;;;18.07;100.00;99608.80;1714931;82;20997;-52
2022/07/09 04:40:43;;;;;;;2.15;0.60;;;;;;;18.09;100.00;99604.11;1714237;82;21499;-53
2022/07/09 04:43:10;;;;;;;2.67;0.60;;;;;;;18.10;100.00;99598.54;1716614;82;21409;-54
2022/07/09 04:45:36;;;;;;;1.82;0.70;;;;;;;18.11;100.00;99591.23;1717172;81;21104;-53
2022/07/09 04:48:04;;;;;;;1.90;0.60;;;;;;;18.11;100.00;99574.89;1718662;82;21069;-53
2022/07/09 04:50:30;;;;;;;0.85;0.60;;;;;;;18.08;100.00;99563.74;1718459;82;20931;-54
2022/07/09 04:52:57;;;;;;;0.65;0.53;;;;;;;18.07;100.00;99569.31;1692541;82;20919;-53
2022/07/09 04:55:23;;;;;;;2.10;0.57;;;;;;;18.05;100.00;99562.62;1713598;81;21205;-53
2022/07/09 04:57:49;;;;;;;2.20;0.80;;;;;;;18.07;100.00;99556.56;1707800;82;21425;-52
2022/07/09 05:00:16;;;;;;;0.90;0.57;;;;;;;18.11;100.00;99542.20;1695336;83;21015;-52
2022/07/09 05:02:43;;;;;;;0.70;0.70;;;;;;;18.15;100.00;99537.73;1696098;82;20962;-53
2022/07/09 05:05:10;;;;;;;1.00;0.60;;;;;;;18.16;100.00;99522.25;1697073;83;21565;-55
2022/07/09 05:07:36;;;;;;;4.28;0.60;;;;;;;18.17;100.00;99523.12;1695716;83;21450;-54
2022/07/09 05:10:04;;;;;;;1.10;0.60;;;;;;;18.16;100.00;99519.53;1697460;82;21124;-54
2022/07/09 05:12:31;;;;;;;2.27;0.60;;;;;;;18.14;100.00;99499.22;1688660;83;20984;-55
2022/07/09 05:14:57;;;;;;;0.82;0.62;;;;;;;18.15;100.00;99494.14;1697040;82;21095;-54
2022/07/09 05:17:24;;;;;;;2.62;0.60;;;;;;;18.18;100.00;99478.55;1698908;82;21027;-54
2022/07/09 05:19:51;;;;;;;0.88;0.62;;;;;;;18.20;100.00;99471.98;1692669;82;21164;-54
2022/07/09 05:22:17;;;;;;;0.88;0.60;;;;;;;18.22;100.00;99465.02;1692084;82;21641;-53
2022/07/09 05:24:44;;;;;;;2.25;0.80;;;;;;;18.22;100.00;99452.27;1688887;82;21466;-53
2022/07/09 05:27:14;;;;;;;0.80;0.80;;;;;;;18.23;100.00;99447.69;1681617;83;21164;-53
2022/07/09 05:29:40;;;;;;;1.77;0.70;;;;;;;18.23;100.00;99444.46;1681937;81;20931;-53
2022/07/09 05:32:08;;;;;;;0.72;0.50;;;;;;;18.22;100.00;99445.95;1731088;81;22218;-53
2022/07/09 05:34:34;;;;;;;0.95;0.50;;;;;;;18.23;100.00;99447.19;1728133;81;21509;-53
2022/07/09 05:37:01;;;;;;;2.05;0.60;;;;;;;18.25;100.00;99444.34;1732611;81;21038;-53
2022/07/09 05:39:27;;;;;;;1.05;0.60;;;;;;;18.26;100.00;99447.44;1725019;81;21127;-54
2022/07/09 05:41:54;;;;;;;3.50;0.60;;;;;;;18.28;100.00;99444.95;1728364;81;21945;-53
2022/07/09 05:44:20;;;;;;;1.92;0.50;;;;;;;18.30;100.00;99457.92;1727845;81;21105;-53
2022/07/09 05:46:47;;;;;;;1.15;0.50;;;;;;;18.30;100.00;99455.20;1730850;81;21048;-53
2022/07/09 05:49:13;;;;;;;2.75;0.47;;;;;;;18.32;100.00;99461.89;1685124;83;21483;-54
2022/07/09 05:51:40;;;;;;;1.07;0.50;;;;;;;18.33;100.00;99457.68;1690211;83;21086;-54
2022/07/09 05:54:07;;;;;;;4.33;0.60;;;;;;;18.38;100.00;99452.69;1689710;83;21038;-54
2022/07/09 05:56:34;;;;;;;1.85;0.50;;;;;;;18.44;100.00;99452.69;1725458;81;21570;-54
2022/07/09 05:59:03;;;;;;;1.60;0.60;;;;;;;18.48;100.00;99450.05;1726241;81;21075;-54
2022/07/09 06:01:30;;;;;;;1.47;0.60;;;;;;;18.51;100.00;99447.08;1724931;81;21711;-55
2022/07/09 06:03:57;;;;;;;0.72;0.65;;;;;;;18.53;100.00;99455.50;1724147;81;21376;-54
2022/07/09 06:06:24;;;;;;;1.10;0.40;;;;;;;18.56;100.00;99448.89;1727866;81;21083;-54
2022/07/09 06:08:50;;;;;;;0.53;0.50;;;;;;;18.59;100.00;99441.86;1721694;81;21213;-54
2022/07/09 06:11:17;;;;;;;1.47;0.50;;;;;;;18.63;100.00;99439.22;1727982;81;21441;-54
2022/07/09 06:13:44;;;;;;;1.20;0.50;;;;;;;18.68;100.00;99434.75;1725296;81;21030;-54
2022/07/09 06:16:11;;;;;;;0.68;0.53;;;;;;;18.72;100.00;99430.25;1721033;81;21135;-54
2022/07/09 06:18:37;;;;;;;0.78;0.50;;;;;;;18.76;100.00;99433.09;1732726;81;21527;-53
2022/07/09 06:21:04;;;;;;;1.15;0.60;;;;;;;18.77;100.00;99438.91;1726489;81;21439;-54
2022/07/09 06:23:31;;;;;;;1.10;0.60;;;;;;;18.79;100.00;99447.83;1727862;81;21107;-54
2022/07/09 06:25:57;;;;;;;2.40;0.40;;;;;;;18.79;100.00;99456.02;1730075;80;21044;-53
2022/07/09 06:28:25;;;;;;;3.83;0.50;;;;;;;18.78;100.00;99444.73;1696316;82;21042;-54
2022/07/09 06:30:51;;;;;;;0.70;0.50;;;;;;;18.80;100.00;99443.21;1694634;82;21039;-53
2022/07/09 06:33:18;;;;;;;0.70;0.45;;;;;;;18.81;100.00;99436.77;1697971;82;20987;-53
2022/07/09 06:35:44;;;;;;;1.42;0.50;;;;;;;18.85;100.00;99440.47;1702446;82;21054;-53
2022/07/09 06:38:10;;;;;;;0.70;0.50;;;;;;;18.88;100.00;99443.44;1733512;82;21153;-53
2022/07/09 06:40:37;;;;;;;2.08;0.50;;;;;;;18.90;100.00;99445.02;1698262;82;21093;-53
2022/07/09 06:43:04;;;;;;;1.02;0.55;;;;;;;18.95;100.00;99451.94;1729481;80;21797;-53
2022/07/09 06:45:35;;;;;;;0.68;0.68;;;;;;;18.97;100.00;99454.88;1694488;82;22531;-53
2022/07/09 06:48:02;;;;;;;0.88;0.42;;;;;;;19.00;100.00;99460.57;1700309;82;21095;-54
2022/07/09 06:50:29;;;;;;;1.87;0.82;;;;;;;19.01;100.00;99470.48;1699719;82;21103;-53
2022/07/09 06:52:55;;;;;;;0.40;0.40;;;;;;;19.03;100.00;99468.50;1728038;80;21045;-53
2022/07/09 06:55:22;;;;;;;1.87;0.50;;;;;;;19.07;100.00;99462.63;1732396;80;21692;-53
2022/07/09 06:57:48;;;;;;;3.37;0.50;;;;;;;19.11;100.00;99467.33;1697950;82;21158;-54
2022/07/09 07:00:15;;;;;;;1.02;0.50;;;;;;;19.14;100.00;99456.98;1700617;82;21651;-54
2022/07/09 07:02:42;;;;;;;0.60;0.50;;;;;;;19.15;100.00;99448.31;1733435;80;21057;-53
2022/07/09 07:05:09;;;;;;;0.50;0.40;;;;;;;19.15;100.00;99449.17;1699230;82;21073;-55
2022/07/09 07:07:35;;;;;;;1.92;0.50;;;;;;;19.13;100.00;99428.01;1734613;80;20872;-54
2022/07/09 07:10:02;;;;;;;3.17;0.40;;;;;;;19.10;100.00;99423.31;1700764;82;21917;-54
2022/07/09 07:12:29;;;;;;;1.95;0.47;;;;;;;19.07;100.00;99416.25;1730704;80;21062;-54
2022/07/09 07:14:56;;;;;;;0.60;0.42;;;;;;;19.03;100.00;99424.86;1695769;82;21147;-54
2022/07/09 07:17:23;;;;;;;1.12;0.50;;;;;;;19.01;100.00;99435.89;1696854;82;21083;-54
2022/07/09 07:19:49;;;;;;;1.20;0.53;;;;;;;19.02;100.00;99447.17;1727165;80;21499;-54
2022/07/09 07:22:16;;;;;;;2.60;0.60;;;;;;;19.04;100.00;99446.55;1730043;82;21143;-54
2022/07/09 07:24:42;;;;;;;0.70;0.50;;;;;;;19.05;100.00;99441.96;1732676;81;21129;-53
2022/07/09 07:27:09;;;;;;;4.55;0.50;;;;;;;19.07;100.00;99438.57;1720932;81;21041;-54
2022/07/09 07:29:35;;;;;;;1.50;0.60;;;;;;;19.05;100.00;99436.01;1717677;81;21717;-54
2022/07/09 07:32:02;;;;;;;5.45;0.50;;;;;;;19.06;100.00;99424.56;1724003;81;20934;-53
2022/07/09 07:34:30;;;;;;;5.22;0.60;;;;;;;19.05;100.00;99425.09;1725911;81;21079;-53
2022/07/09 07:36:56;;;;;;;1.37;0.50;;;;;;;19.06;100.00;99423.20;1724418;81;20955;-54
2022/07/09 07:39:24;;;;;;;0.65;0.42;;;;;;;19.08;100.00;99423.44;1692580;83;21365;-53
2022/07/09 07:41:50;;;;;;;2.87;0.50;;;;;;;19.12;100.00;99415.37;1720816;81;20933;-54
2022/07/09 07:44:17;;;;;;;0.88;0.60;;;;;;;19.13;100.00;99409.41;1717541;81;21783;-52
2022/07/09 07:46:43;;;;;;;4.45;0.40;;;;;;;19.14;100.00;99411.14;1724444;81;21786;-54
2022/07/09 07:49:09;;;;;;;1.37;0.50;;;;;;;19.14;100.00;99405.69;1723771;81;20898;-53
2022/07/09 07:51:36;;;;;;;0.50;0.40;;;;;;;19.13;100.00;99400.73;1723522;81;20965;-53
2022/07/09 07:54:03;;;;;;;1.80;0.40;;;;;;;19.15;100.00;99402.80;1720802;81;21718;-53
2022/07/09 07:56:32;;;;;;;1.57;0.42;;;;;;;19.16;100.00;99397.70;1724785;81;21002;-53
2022/07/09 07:58:58;;;;;;;1.50;0.40;;;;;;;19.20;100.00;99394.22;1725294;81;21872;-53
2022/07/09 08:01:25;;;;;;;0.40;0.40;;;;;;;19.23;100.00;99392.06;1718679;81;21292;-53
2022/07/09 08:03:51;;;;;;;0.70;0.45;;;;;;;19.27;100.00;99389.44;1732795;81;21547;-53
2022/07/09 08:06:18;;;;;;;1.02;0.40;;;;;;;19.29;100.00;99385.21;1723498;81;21081;-54
2022/07/09 08:08:44;;;;;;;0.55;0.40;;;;;;;19.27;100.00;99381.75;1717227;81;21097;-53
2022/07/09 08:11:12;;;;;;;0.40;0.40;;;;;;;19.26;100.00;99386.84;1710791;81;21038;-53
2022/07/09 08:13:40;;;;;;;1.22;0.70;;;;;;;19.24;100.00;99381.52;1721889;81;21033;-54
2022/07/09 08:16:07;;;;;;;0.62;0.40;;;;;;;19.24;100.00;99397.02;1718890;81;21050;-55
2022/07/09 08:18:35;;;;;;;2.90;0.40;;;;;;;19.23;100.00;99389.33;1723376;81;21109;-55
2022/07/09 08:21:01;;;;;;;1.82;0.40;;;;;;;19.22;100.00;99393.59;1715762;81;21121;-54
2022/07/09 08:23:28;;;;;;;0.50;0.45;;;;;;;19.23;100.00;99387.10;1717999;81;21137;-54
2022/07/09 08:25:54;;;;;;;0.50;0.40;;;;;;;19.24;100.00;99380.14;1726368;81;21086;-55
2022/07/09 08:28:21;;;;;;;0.90;0.30;;;;;;;19.28;100.00;99386.20;1729556;82;21105;-53
2022/07/09 08:30:48;;;;;;;0.33;0.30;;;;;;;19.33;100.00;99390.73;1731361;80;21529;-54
2022/07/09 08:33:15;;;;;;;1.35;0.40;;;;;;;19.39;100.00;99388.84;1735124;82;21065;-55
2022/07/09 08:35:42;;;;;;;1.95;0.50;;;;;;;19.46;100.00;99388.64;1734772;82;21037;-55
2022/07/09 08:38:08;;;;;;;0.50;0.40;;;;;;;19.49;100.00;99388.38;1731423;80;21614;-55
2022/07/09 08:40:35;;;;;;;0.37;0.37;;;;;;;19.54;100.00;99379.80;1734028;82;21553;-55
2022/07/09 08:43:03;;;;;;;0.47;0.40;;;;;;;19.58;100.00;99379.36;1666041;82;21532;-54
2022/07/09 08:45:30;;;;;;;3.35;0.40;;;;;;;19.61;100.00;99377.72;1728825;82;21153;-55
2022/07/09 08:47:57;;;;;;;0.75;0.30;;;;;;;19.66;100.00;99381.38;1732793;81;21633;-54
2022/07/09 08:50:23;;;;;;;0.40;0.40;;;;;;;19.70;100.00;99376.02;1707073;82;21130;-55
2022/07/09 08:52:51;;;;;;;0.40;0.40;;;;;;;19.75;100.00;99375.08;1704335;82;21557;-53
2022/07/09 08:55:18;;;;;;;1.42;0.40;;;;;;;19.79;100.00;99375.17;1737738;81;21096;-54
2022/07/09 08:57:44;;;;;;;0.60;0.50;;;;;;;19.84;100.00;99373.38;1703004;82;21089;-55
2022/07/09 09:00:12;;;;;;;0.70;0.60;;;;;;;19.90;100.00;99375.56;1701105;82;20981;-54
2022/07/09 09:02:38;;;;;;;2.08;0.70;;;;;;;19.96;100.00;99376.34;1691830;82;21127;-55
2022/07/09 09:05:14;;;;;;;1.10;0.80;;;;;;;20.00;100.00;99369.57;1701040;82;21101;-55
2022/07/09 09:07:41;;;;;;;1.82;0.60;;;;;;;20.05;100.00;99379.59;1726910;81;27097;-55
2022/07/09 09:10:08;;;;;;;1.27;0.70;;;;;;;20.08;100.00;99379.28;1735061;81;21560;-53
2022/07/09 09:12:35;;;;;;;1.50;0.60;;;;;;;20.12;100.00;99373.91;1734927;80;21151;-55
2022/07/09 09:15:06;;;;;;;0.93;0.70;;;;;;;20.17;100.00;99373.46;1735449;80;21121;-54
2022/07/09 09:17:33;;;;;;;2.25;0.60;;;;;;;20.19;100.00;99376.92;1736221;81;21496;-55
2022/07/09 09:20:14;;;;;;;1.52;0.60;;;;;;;20.16;100.00;99373.96;1699910;83;21065;-55
2022/07/09 09:22:48;;;;;;;3.95;0.95;;;;;;;20.15;100.00;99380.47;1727802;81;21148;-55
2022/07/09 09:25:20;;;;;;;6.70;1.47;;;;;;;20.15;100.00;99379.09;1699492;82;21154;-55
2022/07/09 09:27:54;;;;;;;9.60;6.78;;;;;;;20.13;100.00;99370.67;1702036;82;21090;-54
2022/07/09 09:30:21;;;;;;;3.20;1.65;;;;;;;20.11;100.00;99368.58;1705835;82;21026;-53
2022/07/09 09:33:02;;;;;;;2.60;1.62;;;;;;;20.08;100.00;99370.22;1700146;82;21033;-54
2022/07/09 09:35:35;;;;;;;3.22;0.80;;;;;;;20.04;100.00;99358.73;1732356;81;21054;-54
2022/07/09 09:38:01;;;;;;;3.90;3.52;;;;;;;20.05;100.00;99359.09;1704519;82;21165;-54
2022/07/09 09:40:28;;;;;;;3.22;1.00;;;;;;;20.08;100.00;99360.66;1699828;82;21074;-54
2022/07/09 09:42:56;;;;;;;1.10;0.70;;;;;;;20.10;100.00;99358.16;1728514;81;21071;-54
2022/07/09 09:45:23;;;;;;;1.20;0.50;;;;;;;20.10;100.00;99362.25;1696117;82;21059;-55
2022/07/09 09:47:51;;;;;;;0.53;0.40;;;;;;;20.13;100.00;99355.14;1734392;81;21114;-55
2022/07/09 09:50:25;;;;;;;0.95;0.40;;;;;;;20.15;100.00;99346.81;1730996;81;22270;-53
2022/07/09 09:52:54;;;;;;;0.60;0.40;;;;;;;20.17;100.00;99344.77;1736374;81;21045;-55
2022/07/09 09:55:21;;;;;;;0.93;0.40;;;;;;;20.17;100.00;99337.44;1700883;82;21051;-54
2022/07/09 09:57:48;;;;;;;0.80;0.40;;;;;;;20.19;100.00;99342.77;1733688;82;21148;-54
2022/07/09 10:00:15;;;;;;;0.68;0.40;;;;;;;20.20;100.00;99342.62;1731722;81;21620;-55
2022/07/09 10:02:46;;;;;;;2.67;0.72;;;;;;;20.19;100.00;99332.70;1697344;82;21528;-53
2022/07/09 10:05:13;;;;;;;1.50;0.37;;;;;;;20.18;100.00;99339.16;1697107;83;20987;-54
2022/07/09 10:07:41;;;;;;;0.57;0.40;;;;;;;20.15;100.00;99343.58;1732308;80;21555;-53
2022/07/09 10:10:18;;;;;;;0.47;0.40;;;;;;;20.10;100.00;99345.86;1736528;82;21799;-53
2022/07/09 10:12:45;;;;;;;0.30;0.30;;;;;;;20.07;100.00;99351.63;1729248;82;21045;-53
2022/07/09 10:15:26;;;;;;;0.65;0.50;;;;;;;20.04;100.00;99353.27;1730716;80;22330;-54
2022/07/09 10:17:54;;;;;;;0.60;0.40;;;;;;;20.00;100.00;99351.81;1695749;82;21078;-54
2022/07/09 10:20:33;;;;;;;1.95;0.42;;;;;;;20.02;100.00;99358.01;1698801;82;21023;-54
2022/07/09 10:23:01;;;;;;;2.75;0.50;;;;;;;20.04;100.00;99353.27;1698759;82;20975;-55
2022/07/09 10:25:34;;;;;;;1.30;0.50;;;;;;;20.05;100.00;99357.73;1699536;82;20978;-55
2022/07/09 10:28:01;;;;;;;2.65;0.50;;;;;;;20.06;100.00;99349.03;1701227;82;21850;-55
2022/07/09 10:30:31;;;;;;;1.05;0.50;;;;;;;20.07;100.00;99351.63;1711731;80;20942;-55
2022/07/09 10:33:10;;;;;;;21.65;15.63;;;;;;;20.07;100.00;99353.50;1700843;82;21043;-54
2022/07/09 10:35:50;;;;;;;11.50;9.55;;;;;;;20.04;100.00;99357.37;1700163;82;21486;-55
2022/07/09 10:38:17;;;;;;;4.05;1.75;;;;;;;20.02;100.00;99353.41;1732803;80;20954;-55
2022/07/09 10:40:46;;;;;;;2.25;0.93;;;;;;;20.03;100.00;99359.73;1695074;82;21937;-55
2022/07/09 10:43:12;;;;;;;11.03;8.73;;;;;;;20.07;100.00;99365.80;1698273;83;21936;-55
2022/07/09 10:45:42;;;;;;;6.83;4.75;;;;;;;20.08;100.00;99363.39;1734923;80;20915;-55
2022/07/09 10:48:11;;;;;;;10.00;7.42;;;;;;;20.06;100.00;99366.30;1700113;82;20931;-55
2022/07/09 10:50:43;;;;;;;2.12;1.72;;;;;;;20.06;100.00;99369.02;1698250;82;20928;-55
2022/07/09 10:53:11;;;;;;;0.80;0.60;;;;;;;20.06;100.00;99366.80;1734375;80;21056;-54
2022/07/09 10:55:47;;;;;;;0.70;0.50;;;;;;;20.07;100.00;99369.39;1731293;82;21054;-54
2022/07/09 10:58:21;;;;;;;0.78;0.50;;;;;;;20.09;100.00;99371.95;1727866;80;21038;-55
2022/07/09 11:00:58;;;;;;;1.30;0.47;;;;;;;20.10;100.00;99355.92;1733961;82;21370;-54
2022/07/09 11:03:29;;;;;;;0.90;0.53;;;;;;;20.07;100.00;99363.92;1727648;80;20943;-55
2022/07/09 11:05:56;;;;;;;0.85;0.50;;;;;;;20.06;100.00;99355.86;1731666;80;21355;-55
2022/07/09 11:08:22;;;;;;;0.98;0.60;;;;;;;20.06;100.00;99366.30;1699010;82;20939;-55
2022/07/09 11:10:50;;;;;;;0.80;0.50;;;;;;;20.08;100.00;99366.98;1701705;82;21083;-55
2022/07/09 11:13:17;;;;;;;1.92;0.50;;;;;;;20.10;100.00;99362.75;1734758;80;21066;-55
2022/07/09 11:15:43;;;;;;;1.10;0.40;;;;;;;20.12;100.00;99361.61;1730456;80;21133;-55
2022/07/09 11:18:13;;;;;;;1.85;0.70;;;;;;;20.16;100.00;99356.20;1731374;80;21249;-55
2022/07/09 11:20:45;;;;;;;1.72;0.50;;;;;;;20.19;100.00;99360.02;1726517;82;21082;-55
2022/07/09 11:23:14;;;;;;;0.57;0.50;;;;;;;20.20;100.00;99356.29;1728219;82;21022;-56
2022/07/09 11:25:42;;;;;;;0.78;0.70;;;;;;;20.22;100.00;99360.25;1696461;82;21667;-55
2022/07/09 11:28:08;;;;;;;2.47;1.10;;;;;;;20.24;100.00;99361.84;1700276;82;21038;-56